Time;durP1;ratioP1;P1;durP2;ratioP2;P2;SDS_P1;SDS_P2;PMS_P1;PMS_P2;Temp;Humidity;BMP_temperature;BMP_pressure;BME280_temperature;BME280_humidity;BME280_pressure;Samples;Min_cycle;Max_cycle;Signal;HPM_P1;HPM_P2
2023/11/30 00:01:50;;;;;;;42.13;19.90;;;;;;;-3.72;71.81;99376.38;5115007;28;20682;-69
2023/11/30 00:04:18;;;;;;;40.57;18.87;;;;;;;-3.76;71.23;99375.41;5102516;28;20287;-70
2023/11/30 00:06:46;;;;;;;44.57;20.00;;;;;;;-3.80;71.42;99367.72;5120642;27;20219;-67
2023/11/30 00:09:14;;;;;;;38.23;18.97;;;;;;;-3.87;72.06;99366.66;5111147;27;20283;-66
2023/11/30 00:11:42;;;;;;;38.90;20.03;;;;;;;-3.84;71.86;99375.97;5109909;28;20208;-68
2023/11/30 00:14:10;;;;;;;37.40;18.10;;;;;;;-3.86;72.24;99372.56;5113548;28;20242;-69
2023/11/30 00:16:38;;;;;;;37.23;19.10;;;;;;;-3.90;72.23;99371.59;5113888;27;20239;-68
2023/11/30 00:19:08;;;;;;;41.67;18.77;;;;;;;-3.89;71.65;99371.63;5118346;27;20225;-68
2023/11/30 00:21:36;;;;;;;36.00;18.73;;;;;;;-3.88;72.34;99375.00;5111174;28;20264;-64
2023/11/30 00:24:04;;;;;;;39.33;18.77;;;;;;;-3.87;71.94;99374.19;5113695;28;20215;-63
2023/11/30 00:26:33;;;;;;;40.10;19.73;;;;;;;-3.89;72.08;99369.13;5114016;28;20674;-63
2023/11/30 00:29:01;;;;;;;37.80;18.83;;;;;;;-3.90;72.29;99367.41;5116198;27;20196;-64
2023/11/30 00:31:29;;;;;;;38.13;17.90;;;;;;;-3.91;72.46;99373.22;5109028;27;20609;-66
2023/11/30 00:33:57;;;;;;;42.20;18.97;;;;;;;-3.92;71.97;99363.13;5109668;27;20701;-65
2023/11/30 00:36:26;;;;;;;33.50;16.73;;;;;;;-3.86;71.77;99372.56;5108407;27;20247;-65
2023/11/30 00:38:54;;;;;;;40.27;19.50;;;;;;;-3.89;71.80;99374.16;5115359;27;20200;-66
2023/11/30 00:41:23;;;;;;;38.67;18.43;;;;;;;-3.88;72.24;99375.84;5108072;27;20651;-64
2023/11/30 00:43:51;;;;;;;42.17;19.33;;;;;;;-3.87;71.60;99369.16;5112596;27;20210;-69
2023/11/30 00:46:19;;;;;;;40.63;20.50;;;;;;;-3.90;71.69;99374.97;5114432;27;20292;-65
2023/11/30 00:48:47;;;;;;;39.93;19.47;;;;;;;-3.94;71.77;99358.06;5114649;27;20210;-65
2023/11/30 00:51:15;;;;;;;41.77;18.70;;;;;;;-3.91;72.04;99365.69;5113404;27;20638;-65
2023/11/30 00:53:45;;;;;;;40.33;19.43;;;;;;;-3.93;71.83;99374.84;5106759;27;20659;-64
2023/11/30 00:56:13;;;;;;;41.33;19.63;;;;;;;-3.95;71.68;99363.88;5118224;27;20723;-65
2023/11/30 00:58:41;;;;;;;44.47;21.17;;;;;;;-3.94;71.74;99368.13;5111668;27;20260;-65
2023/11/30 01:01:09;;;;;;;44.33;20.17;;;;;;;-3.96;71.77;99362.16;5116225;27;20204;-67
2023/11/30 01:03:37;;;;;;;44.40;20.33;;;;;;;-3.98;71.49;99366.25;5115448;27;20196;-67
2023/11/30 01:06:05;;;;;;;41.13;20.00;;;;;;;-3.99;71.84;99364.56;5112659;27;20287;-66
2023/11/30 01:08:34;;;;;;;40.50;20.07;;;;;;;-4.03;71.63;99359.38;5113944;27;20203;-64
2023/11/30 01:11:04;;;;;;;41.70;20.10;;;;;;;-4.03;71.70;99361.88;5114517;27;20655;-65
2023/11/30 01:13:32;;;;;;;43.63;21.50;;;;;;;-4.02;71.95;99364.44;5111994;27;20239;-65
2023/11/30 01:16:00;;;;;;;36.07;19.87;;;;;;;-4.02;72.53;99358.56;5109161;27;20242;-64
2023/11/30 01:18:28;;;;;;;39.70;18.87;;;;;;;-4.01;72.09;99360.31;5121406;27;20200;-64
2023/11/30 01:20:57;;;;;;;35.23;18.97;;;;;;;-4.01;72.28;99363.66;5111982;27;20203;-65
2023/11/30 01:23:25;;;;;;;39.60;20.57;;;;;;;-4.00;72.18;99356.97;5115223;27;20204;-63
2023/11/30 01:25:53;;;;;;;40.33;20.40;;;;;;;-4.00;71.25;99360.34;5108291;28;20572;-65
2023/11/30 01:28:22;;;;;;;39.97;19.83;;;;;;;-3.96;72.09;99357.13;5112776;27;20738;-68
2023/11/30 01:30:50;;;;;;;42.07;20.37;;;;;;;-3.97;71.06;99362.13;5120373;27;20196;-67
2023/11/30 01:33:18;;;;;;;38.83;19.57;;;;;;;-4.01;71.24;99361.16;5114307;27;20679;-69
2023/11/30 01:35:47;;;;;;;42.57;20.07;;;;;;;-4.00;71.92;99359.50;5120903;27;20573;-67
2023/11/30 01:38:16;;;;;;;44.87;20.60;;;;;;;-3.99;71.65;99362.03;5119590;27;20240;-69
2023/11/30 01:40:44;;;;;;;44.70;20.33;;;;;;;-3.98;72.34;99356.19;5104257;27;20223;-68
2023/11/30 01:43:12;;;;;;;38.37;20.50;;;;;;;-3.99;72.01;99351.13;5103322;27;20642;-68
2023/11/30 01:45:41;;;;;;;41.07;19.47;;;;;;;-3.97;71.98;99352.91;5103369;27;20216;-67
2023/11/30 01:48:10;;;;;;;44.97;20.70;;;;;;;-3.94;71.97;99350.50;5112859;27;20672;-67
2023/11/30 01:50:38;;;;;;;38.47;18.93;;;;;;;-3.91;71.73;99350.56;5114626;27;20290;-69
2023/11/30 01:53:07;;;;;;;42.67;20.87;;;;;;;-3.90;71.48;99352.31;5117087;27;20294;-67
2023/11/30 01:55:35;;;;;;;35.20;17.47;;;;;;;-3.90;71.83;99337.22;5114310;27;20266;-68
2023/11/30 01:58:04;;;;;;;38.40;20.17;;;;;;;-3.85;72.03;99341.56;5116981;27;20203;-69
2023/11/30 02:00:32;;;;;;;40.43;20.03;;;;;;;-3.78;71.53;99340.97;5118903;27;20548;-70
2023/11/30 02:03:02;;;;;;;36.37;20.00;;;;;;;-3.74;71.47;99342.78;5123669;27;20208;-66
2023/11/30 02:05:30;;;;;;;39.03;19.63;;;;;;;-3.72;71.77;99341.16;5103641;27;20283;-67
2023/11/30 02:07:58;;;;;;;43.40;20.60;;;;;;;-3.75;71.20;99339.41;5116474;27;20226;-67
2023/11/30 02:10:26;;;;;;;43.03;20.13;;;;;;;-3.75;70.98;99334.38;5116796;27;20195;-69
2023/11/30 02:12:54;;;;;;;38.77;20.07;;;;;;;-3.73;71.95;99335.25;5110907;27;20245;-67
2023/11/30 02:15:23;;;;;;;48.30;21.23;;;;;;;-3.73;71.91;99339.44;5112120;27;20567;-69
2023/11/30 02:17:51;;;;;;;42.13;20.33;;;;;;;-3.74;71.34;99337.75;5107953;28;20211;-66
2023/11/30 02:20:20;;;;;;;40.33;20.67;;;;;;;-3.73;71.28;99341.97;5112945;27;20291;-67
2023/11/30 02:22:50;;;;;;;39.57;20.23;;;;;;;-3.75;72.20;99343.59;5115831;27;20204;-67
2023/11/30 02:25:18;;;;;;;39.47;19.97;;;;;;;-3.77;72.08;99340.16;5112091;27;20675;-67
2023/11/30 02:27:46;;;;;;;42.57;20.70;;;;;;;-3.76;72.20;99335.16;5110809;27;20208;-68
2023/11/30 02:30:14;;;;;;;38.43;19.30;;;;;;;-3.74;72.07;99335.22;5105131;27;20262;-67
2023/11/30 02:32:42;;;;;;;42.43;21.17;;;;;;;-3.73;71.52;99329.38;5108596;28;20212;-68
2023/11/30 02:35:10;;;;;;;39.07;19.33;;;;;;;-3.68;71.50;99332.91;5119577;27;20213;-67
2023/11/30 02:37:38;;;;;;;42.60;19.60;;;;;;;-3.70;71.01;99335.38;5118488;28;20212;-68
2023/11/30 02:40:09;;;;;;;41.73;19.07;;;;;;;-3.73;71.29;99334.41;5109431;28;21373;-68
2023/11/30 02:42:37;;;;;;;38.93;18.80;;;;;;;-3.69;71.10;99336.22;5118561;28;20669;-65
2023/11/30 02:45:05;;;;;;;41.23;19.90;;;;;;;-3.67;71.14;99335.47;5115982;27;20250;-63
2023/11/30 02:47:33;;;;;;;43.97;19.73;;;;;;;-3.67;71.66;99335.47;5114042;28;20609;-64
2023/11/30 02:50:01;;;;;;;39.93;19.20;;;;;;;-3.68;71.57;99327.88;5102715;28;20199;-64
2023/11/30 02:52:29;;;;;;;42.83;20.90;;;;;;;-3.70;70.62;99337.03;5112655;28;20318;-63
2023/11/30 02:54:57;;;;;;;41.77;19.73;;;;;;;-3.73;71.83;99336.94;5116842;28;20311;-62
2023/11/30 02:57:26;;;;;;;35.70;19.07;;;;;;;-3.75;71.41;99341.06;5111848;28;20674;-64
2023/11/30 02:59:54;;;;;;;38.33;20.67;;;;;;;-3.82;71.72;99341.66;5112263;28;20215;-64
2023/11/30 03:02:22;;;;;;;43.63;21.13;;;;;;;-3.91;71.75;99335.47;5117778;28;20203;-62
2023/11/30 03:04:53;;;;;;;44.00;19.90;;;;;;;-3.90;72.27;99333.84;5108860;28;20295;-64
2023/11/30 03:07:21;;;;;;;40.63;19.23;;;;;;;-3.88;71.92;99333.06;5096037;27;20208;-64
2023/11/30 03:09:49;;;;;;;41.83;19.80;;;;;;;-3.86;72.82;99334.81;5100439;28;20238;-63
2023/11/30 03:12:17;;;;;;;40.13;20.53;;;;;;;-3.85;72.32;99322.28;5112568;28;20250;-64
2023/11/30 03:14:47;;;;;;;40.47;19.83;;;;;;;-3.81;72.36;99313.16;5113125;28;20243;-66
2023/11/30 03:17:15;;;;;;;44.23;19.33;;;;;;;-3.73;72.34;99325.19;5119673;27;20260;-63
2023/11/30 03:19:43;;;;;;;38.07;19.60;;;;;;;-3.72;72.04;99308.41;5113562;28;20215;-66
2023/11/30 03:22:11;;;;;;;41.67;20.50;;;;;;;-3.73;72.33;99310.09;5114676;28;20214;-63
2023/11/30 03:24:39;;;;;;;37.27;18.70;;;;;;;-3.71;71.83;99317.72;5115044;28;20204;-64
2023/11/30 03:27:09;;;;;;;38.47;19.73;;;;;;;-3.72;71.55;99315.97;5111233;28;20200;-63
2023/11/30 03:29:37;;;;;;;41.23;20.43;;;;;;;-3.77;72.82;99313.31;5119975;27;20207;-65
2023/11/30 03:32:06;;;;;;;40.97;19.50;;;;;;;-3.76;73.04;99309.13;5117467;27;20200;-64
2023/11/30 03:34:34;;;;;;;39.83;20.67;;;;;;;-3.74;73.19;99299.97;5112063;27;20290;-67
2023/11/30 03:37:02;;;;;;;35.77;18.00;;;;;;;-3.70;73.09;99295.09;5102815;27;20229;-64
2023/11/30 03:39:30;;;;;;;38.03;18.30;;;;;;;-3.66;72.38;99296.91;5114017;27;20199;-64
2023/11/30 03:41:58;;;;;;;36.67;19.10;;;;;;;-3.68;73.00;99287.59;5115995;27;20209;-63
2023/11/30 03:44:25;;;;;;;36.30;17.07;;;;;;;-3.58;72.24;99303.84;5117922;27;20249;-65
2023/11/30 03:46:53;;;;;;;40.17;19.87;;;;;;;-3.61;72.83;99302.06;5116950;27;20203;-62
2023/11/30 03:49:23;;;;;;;38.73;18.37;;;;;;;-3.62;72.25;99302.91;5122006;27;20215;-69
2023/11/30 03:51:51;;;;;;;43.13;20.50;;;;;;;-3.65;73.12;99297.75;5105834;27;20207;-71
2023/11/30 03:54:19;;;;;;;37.40;19.97;;;;;;;-3.60;73.85;99305.47;5104056;27;20551;-67
2023/11/30 03:56:47;;;;;;;35.20;19.37;;;;;;;-3.56;72.66;99307.28;5105985;27;20212;-68
2023/11/30 03:59:14;;;;;;;37.10;17.50;;;;;;;-3.53;73.31;99310.75;5106807;27;20677;-67
2023/11/30 04:01:42;;;;;;;37.83;18.87;;;;;;;-3.53;73.60;99305.72;5106518;27;20210;-69
2023/11/30 04:04:10;;;;;;;40.97;20.27;;;;;;;-3.49;73.34;99302.50;5096465;28;20204;-68
2023/11/30 04:06:40;;;;;;;38.53;19.23;;;;;;;-3.42;74.61;99301.91;5102498;27;20209;-68
2023/11/30 04:09:08;;;;;;;33.30;15.83;;;;;;;-3.39;73.61;99301.13;5112524;27;20667;-69
2023/11/30 04:11:36;;;;;;;36.83;19.23;;;;;;;-3.41;75.84;99302.75;5108611;27;20208;-68
2023/11/30 04:14:05;;;;;;;39.20;19.63;;;;;;;-3.42;76.33;99296.84;5114774;27;20665;-66
2023/11/30 04:16:34;;;;;;;39.57;19.10;;;;;;;-3.40;77.27;99299.41;5123148;27;20695;-67
2023/11/30 04:19:02;;;;;;;37.33;18.83;;;;;;;-3.38;76.58;99299.47;5117609;27;20196;-67
2023/11/30 04:21:31;;;;;;;43.80;21.60;;;;;;;-3.41;76.73;99293.53;5118504;27;20235;-69
2023/11/30 04:24:00;;;;;;;35.43;18.73;;;;;;;-3.35;77.47;99292.00;5119360;27;20552;-64
2023/11/30 04:26:28;;;;;;;40.57;20.27;;;;;;;-3.31;77.59;99288.78;5111357;27;20196;-65
2023/11/30 04:28:56;;;;;;;36.63;18.93;;;;;;;-3.25;77.99;99289.81;5115747;27;20207;-68
2023/11/30 04:31:24;;;;;;;36.83;19.70;;;;;;;-3.15;78.08;99288.44;5105493;27;20227;-68
2023/11/30 04:33:51;;;;;;;37.23;19.43;;;;;;;-3.09;77.69;99282.72;5109813;27;20297;-69
2023/11/30 04:36:19;;;;;;;40.37;20.87;;;;;;;-3.05;76.80;99282.03;5108138;27;20623;-64
2023/11/30 04:38:47;;;;;;;40.90;19.63;;;;;;;-3.03;78.58;99281.25;5111927;27;20596;-64
2023/11/30 04:41:16;;;;;;;38.57;18.33;;;;;;;-2.98;77.01;99292.34;5112685;27;20207;-67
2023/11/30 04:43:44;;;;;;;43.57;21.80;;;;;;;-2.95;78.08;99284.84;5121703;27;20204;-65
2023/11/30 04:46:12;;;;;;;43.17;19.03;;;;;;;-2.89;78.18;99286.72;5112706;27;20202;-67
2023/11/30 04:48:40;;;;;;;35.07;18.03;;;;;;;-2.86;77.67;99285.97;5104193;27;20215;-66
2023/11/30 04:51:09;;;;;;;35.07;18.73;;;;;;;-2.85;77.79;99282.63;5110572;28;20222;-63
2023/11/30 04:53:37;;;;;;;39.97;18.67;;;;;;;-2.80;76.55;99286.13;5115905;27;20199;-64
2023/11/30 04:56:06;;;;;;;37.23;20.47;;;;;;;-2.76;77.47;99282.88;5114400;27;20652;-63
2023/11/30 04:58:35;;;;;;;38.40;19.53;;;;;;;-2.74;76.11;99276.22;5115631;27;21024;-64
2023/11/30 05:01:03;;;;;;;35.73;17.90;;;;;;;-2.70;77.27;99273.81;5122216;27;20207;-63
2023/11/30 05:03:31;;;;;;;32.50;17.57;;;;;;;-2.66;77.04;99282.34;5110660;27;20208;-63
2023/11/30 05:05:59;;;;;;;35.80;18.57;;;;;;;-2.67;76.07;99280.63;5102064;27;20648;-64
2023/11/30 05:08:27;;;;;;;34.47;19.30;;;;;;;-2.68;76.06;99279.78;5099802;28;20211;-64
2023/11/30 05:10:56;;;;;;;38.57;20.30;;;;;;;-2.64;76.99;99279.88;5099064;27;20288;-64
2023/11/30 05:13:24;;;;;;;39.30;19.10;;;;;;;-2.60;77.45;99276.63;5109789;27;20546;-65
2023/11/30 05:15:53;;;;;;;37.27;19.90;;;;;;;-2.59;76.37;99271.63;5118300;27;20694;-66
2023/11/30 05:18:21;;;;;;;37.13;20.00;;;;;;;-2.57;76.90;99272.53;5116524;27;20212;-65
2023/11/30 05:20:49;;;;;;;34.27;19.50;;;;;;;-2.54;77.90;99275.13;5106254;27;20204;-65
2023/11/30 05:23:17;;;;;;;36.77;19.67;;;;;;;-2.52;76.75;99277.69;5112836;27;20217;-66
2023/11/30 05:25:45;;;;;;;36.73;18.60;;;;;;;-2.52;78.21;99275.16;5119585;27;20200;-62
2023/11/30 05:28:14;;;;;;;36.93;19.37;;;;;;;-2.50;78.16;99279.44;5102336;27;20200;-64
2023/11/30 05:30:42;;;;;;;32.03;17.73;;;;;;;-2.52;77.57;99278.53;5096009;27;20262;-65
2023/11/30 05:33:12;;;;;;;38.40;19.10;;;;;;;-2.47;78.22;99282.06;5097850;27;20228;-65
2023/11/30 05:35:40;;;;;;;37.57;18.07;;;;;;;-2.46;77.83;99285.44;5113991;27;20208;-65
2023/11/30 05:38:08;;;;;;;30.63;17.27;;;;;;;-2.48;77.90;99282.00;5100285;27;20232;-64
2023/11/30 05:40:36;;;;;;;35.30;19.43;;;;;;;-2.51;78.60;99277.72;5092650;28;20200;-66
2023/11/30 05:43:05;;;;;;;36.83;18.83;;;;;;;-2.49;78.09;99282.81;5098809;28;20200;-67
2023/11/30 05:45:32;;;;;;;37.67;19.90;;;;;;;-2.51;78.29;99282.75;5094335;28;20207;-66
2023/11/30 05:48:01;;;;;;;35.90;18.13;;;;;;;-2.53;77.96;99281.03;5102696;27;20659;-67
2023/11/30 05:50:30;;;;;;;34.10;17.60;;;;;;;-2.55;77.90;99277.59;5099840;28;20671;-65
2023/11/30 05:52:58;;;;;;;33.53;16.87;;;;;;;-2.56;77.99;99281.78;5102529;28;20206;-69
2023/11/30 05:55:26;;;;;;;36.57;18.77;;;;;;;-2.62;78.15;99274.03;5101457;28;20593;-67
2023/11/30 05:57:55;;;;;;;32.60;18.30;;;;;;;-2.67;78.49;99280.63;5096766;27;20212;-68
2023/11/30 06:00:24;;;;;;;35.97;18.33;;;;;;;-2.71;79.54;99279.69;5103125;27;20200;-67
2023/11/30 06:02:52;;;;;;;34.83;19.33;;;;;;;-2.70;79.27;99278.03;5100309;27;20313;-69
2023/11/30 06:05:20;;;;;;;34.40;18.73;;;;;;;-2.70;78.95;99285.59;5102009;28;20607;-69
2023/11/30 06:07:50;;;;;;;33.70;17.83;;;;;;;-2.70;79.97;99278.03;5108468;27;20231;-68
2023/11/30 06:10:18;;;;;;;29.90;17.70;;;;;;;-2.66;80.65;99277.28;5107302;27;20192;-68
2023/11/30 06:12:46;;;;;;;30.67;17.07;;;;;;;-2.59;80.76;99289.25;5120276;27;20204;-69
2023/11/30 06:15:14;;;;;;;38.33;18.50;;;;;;;-2.54;80.28;99297.84;5113701;27;20232;-69
2023/11/30 06:17:42;;;;;;;35.30;19.17;;;;;;;-2.51;80.35;99294.53;5099750;27;20220;-67
2023/11/30 06:20:12;;;;;;;33.13;18.00;;;;;;;-2.50;79.21;99294.59;5097131;28;20208;-66
2023/11/30 06:22:40;;;;;;;36.87;18.70;;;;;;;-2.49;79.57;99288.72;5110653;27;20287;-62
2023/11/30 06:25:10;;;;;;;34.97;17.53;;;;;;;-2.44;78.76;99291.38;5100774;27;20200;-63
2023/11/30 06:27:38;;;;;;;31.60;16.43;;;;;;;-2.42;79.60;99286.38;5107396;27;20196;-66
2023/11/30 06:30:08;;;;;;;29.67;17.30;;;;;;;-2.39;79.87;99284.81;5105044;27;20208;-65
2023/11/30 06:32:36;;;;;;;33.13;16.70;;;;;;;-2.35;79.67;99288.25;5099569;27;20195;-69
2023/11/30 06:35:05;;;;;;;34.07;16.27;;;;;;;-2.32;79.18;99299.28;5111392;27;20585;-71
2023/11/30 06:37:33;;;;;;;30.57;17.00;;;;;;;-2.31;78.36;99292.59;5109420;27;20215;-74
2023/11/30 06:40:01;;;;;;;32.77;17.33;;;;;;;-2.33;78.53;99291.66;5113846;28;20204;-65
2023/11/30 06:42:31;;;;;;;31.97;17.33;;;;;;;-2.36;79.48;99294.94;5101617;28;20284;-64
2023/11/30 06:45:00;;;;;;;29.93;16.00;;;;;;;-2.38;78.81;99296.59;5113545;28;20646;-65
2023/11/30 06:47:28;;;;;;;35.77;17.50;;;;;;;-2.40;79.10;99292.31;5113496;28;20257;-62
2023/11/30 06:49:56;;;;;;;31.80;18.13;;;;;;;-2.37;78.99;99299.97;5115870;28;20239;-63
2023/11/30 06:52:24;;;;;;;33.93;16.57;;;;;;;-2.33;79.54;99296.72;5112490;28;20215;-64
2023/11/30 06:54:53;;;;;;;30.27;17.27;;;;;;;-2.27;80.34;99296.91;5110818;28;20230;-67
2023/11/30 06:57:21;;;;;;;34.40;17.30;;;;;;;-2.22;79.23;99301.25;5114856;28;20207;-66
2023/11/30 06:59:50;;;;;;;33.47;16.67;;;;;;;-2.20;79.66;99301.28;5108283;28;20553;-69
2023/11/30 07:02:18;;;;;;;32.53;17.20;;;;;;;-2.14;79.89;99303.13;5111812;28;20209;-68
2023/11/30 07:04:46;;;;;;;31.60;16.83;;;;;;;-2.10;80.14;99303.25;5100080;27;20612;-66
2023/11/30 07:07:14;;;;;;;29.67;17.00;;;;;;;-2.08;78.68;99291.53;5118616;27;20227;-65
2023/11/30 07:09:58;;;;;;;31.77;17.57;;;;;;;-2.02;78.72;99296.75;5126446;27;21239;-69
2023/11/30 07:12:26;;;;;;;31.77;17.67;;;;;;;-1.97;79.24;99295.19;5127167;27;20673;-65
2023/11/30 07:14:55;;;;;;;30.17;17.43;;;;;;;-1.88;78.97;99303.81;5120966;27;20231;-67
2023/11/30 07:17:23;;;;;;;31.77;17.47;;;;;;;-1.87;79.79;99292.91;5115179;28;20215;-67
2023/11/30 07:19:52;;;;;;;33.63;18.03;;;;;;;-1.85;78.21;99301.38;5113126;28;20207;-65
2023/11/30 07:22:24;;;;;;;31.47;17.37;;;;;;;-1.82;79.85;99303.97;5100977;28;20681;-64
2023/11/30 07:24:53;;;;;;;30.23;17.17;;;;;;;-1.79;79.30;99306.59;5119216;27;20406;-68
2023/11/30 07:27:21;;;;;;;32.93;17.53;;;;;;;-1.74;78.10;99315.13;5115718;28;20715;-68
2023/11/30 07:29:51;;;;;;;32.97;17.40;;;;;;;-1.73;78.37;99317.72;5119168;27;20231;-69
2023/11/30 07:32:21;;;;;;;30.27;17.47;;;;;;;-1.71;78.19;99318.59;5101902;27;20559;-70
2023/11/30 07:34:50;;;;;;;32.77;15.70;;;;;;;-1.71;78.09;99317.72;5102582;27;20227;-67
2023/11/30 07:37:21;;;;;;;35.63;17.17;;;;;;;-1.72;79.13;99314.34;5117352;27;20196;-67
2023/11/30 07:39:50;;;;;;;35.93;18.63;;;;;;;-1.77;78.85;99310.88;5116243;27;20355;-70
2023/11/30 07:42:20;;;;;;;32.07;18.13;;;;;;;-1.68;78.89;99315.28;5118300;27;20196;-68
2023/11/30 07:45:01;;;;;;;29.50;16.87;;;;;;;-1.64;78.73;99319.59;5109353;27;21207;-73
2023/11/30 07:47:31;;;;;;;33.70;18.03;;;;;;;-1.62;78.42;99323.03;5115971;27;20287;-70
2023/11/30 07:49:59;;;;;;;32.27;17.20;;;;;;;-1.60;79.69;99323.06;5122867;27;20210;-69
2023/11/30 07:52:29;;;;;;;31.33;17.70;;;;;;;-1.55;78.98;99316.44;5097584;27;20715;-68
2023/11/30 07:54:57;;;;;;;38.03;18.07;;;;;;;-1.49;79.37;99324.19;5116135;27;20199;-69
2023/11/30 07:57:25;;;;;;;32.57;17.80;;;;;;;-1.42;79.33;99322.66;5119212;27;20196;-69
2023/11/30 07:59:53;;;;;;;31.90;18.47;;;;;;;-1.37;79.08;99321.09;5113333;27;20223;-68
2023/11/30 08:02:21;;;;;;;32.90;17.77;;;;;;;-1.30;78.91;99328.84;5108985;27;20568;-69
2023/11/30 08:04:50;;;;;;;32.97;18.43;;;;;;;-1.26;78.17;99324.72;5109613;27;20663;-67
2023/11/30 08:07:20;;;;;;;34.67;18.33;;;;;;;-1.19;78.67;99325.75;5103902;27;20192;-69
2023/11/30 08:09:48;;;;;;;35.03;17.80;;;;;;;-1.12;78.83;99327.59;5112196;27;20682;-71
2023/11/30 08:12:16;;;;;;;31.53;17.67;;;;;;;-1.07;78.40;99334.47;5111356;27;20288;-68
2023/11/30 08:14:44;;;;;;;31.57;18.50;;;;;;;-1.04;77.27;99334.53;5107479;27;20266;-68
2023/11/30 08:17:12;;;;;;;27.50;15.43;;;;;;;-1.03;77.16;99332.84;5112907;27;20557;-68
2023/11/30 08:19:40;;;;;;;29.50;15.97;;;;;;;-1.07;77.78;99334.47;5117217;27;20208;-69
2023/11/30 08:22:10;;;;;;;35.77;17.20;;;;;;;-1.06;78.54;99332.81;5125374;27;20217;-69
2023/11/30 08:24:42;;;;;;;32.83;17.73;;;;;;;-1.07;77.96;99341.19;5115040;27;20212;-69
2023/11/30 08:27:11;;;;;;;25.13;14.80;;;;;;;-1.08;78.15;99339.50;5119265;27;20192;-69
2023/11/30 08:29:39;;;;;;;34.23;17.83;;;;;;;-1.09;77.89;99337.78;5120972;27;20205;-72
2023/11/30 08:32:08;;;;;;;31.03;16.97;;;;;;;-1.07;79.58;99342.06;5116373;27;20662;-65
2023/11/30 08:34:35;;;;;;;27.33;16.90;;;;;;;-0.99;80.19;99343.09;5118842;27;20282;-62
2023/11/30 08:37:04;;;;;;;31.63;18.30;;;;;;;-0.90;79.58;99349.19;5119525;27;20225;-65
2023/11/30 08:39:33;;;;;;;29.27;16.30;;;;;;;-0.89;78.98;99353.41;5103950;27;20672;-64
2023/11/30 08:42:02;;;;;;;28.77;17.17;;;;;;;-0.91;79.11;99353.38;5117457;27;20557;-65
2023/11/30 08:44:30;;;;;;;31.87;18.47;;;;;;;-0.98;78.61;99351.53;5119323;27;20202;-71
2023/11/30 08:46:58;;;;;;;29.27;16.00;;;;;;;-1.09;79.18;99347.91;5115692;27;20208;-71
2023/11/30 08:49:26;;;;;;;30.60;16.97;;;;;;;-1.13;79.31;99339.38;5120514;27;20259;-68
2023/11/30 08:51:55;;;;;;;29.93;17.10;;;;;;;-1.12;79.94;99346.16;5113828;27;20204;-68
2023/11/30 08:54:23;;;;;;;30.97;18.33;;;;;;;-1.09;80.09;99358.00;5112835;27;20273;-63
2023/11/30 08:56:53;;;;;;;28.20;16.40;;;;;;;-1.03;80.37;99345.50;5111502;27;20200;-64
2023/11/30 08:59:21;;;;;;;31.77;18.20;;;;;;;-0.94;80.21;99353.31;5117218;27;20220;-65
2023/11/30 09:01:49;;;;;;;29.30;16.37;;;;;;;-0.92;79.93;99354.22;5112496;27;20273;-63
2023/11/30 09:04:18;;;;;;;32.00;18.27;;;;;;;-0.90;80.48;99359.28;5106912;27;20291;-63
2023/11/30 09:06:46;;;;;;;37.00;18.53;;;;;;;-0.90;80.19;99356.75;5114874;27;20596;-69
2023/11/30 09:09:14;;;;;;;33.03;18.23;;;;;;;-0.87;80.13;99364.44;5110442;27;20197;-69
2023/11/30 09:11:44;;;;;;;32.73;17.27;;;;;;;-0.82;80.94;99352.72;5113042;27;20248;-58
2023/11/30 09:14:14;;;;;;;31.33;18.87;;;;;;;-0.60;81.83;99356.59;5119931;27;20203;-60
2023/11/30 09:16:42;;;;;;;30.00;17.80;;;;;;;-0.52;80.36;99350.88;5109214;27;20263;-61
2023/11/30 09:19:10;;;;;;;30.73;17.17;;;;;;;-0.54;80.00;99355.06;5118891;27;20303;-64
2023/11/30 09:21:38;;;;;;;29.67;17.07;;;;;;;-0.57;80.00;99349.06;5119402;27;20236;-66
2023/11/30 09:24:07;;;;;;;32.73;19.00;;;;;;;-0.57;80.38;99349.06;5106482;27;20211;-64
2023/11/30 09:26:36;;;;;;;29.13;18.50;;;;;;;-0.46;80.06;99339.19;5115956;27;20211;-65
2023/11/30 09:29:04;;;;;;;26.93;16.77;;;;;;;-0.40;79.37;99327.53;5116789;27;20243;-63
2023/11/30 09:31:33;;;;;;;29.13;18.37;;;;;;;-0.34;79.83;99331.84;5098856;27;20199;-65
2023/11/30 09:34:01;;;;;;;28.00;18.37;;;;;;;-0.28;79.33;99326.91;5103475;27;20646;-63
2023/11/30 09:36:30;;;;;;;30.07;18.00;;;;;;;-0.23;79.48;99319.41;5105068;27;20228;-64
2023/11/30 09:38:58;;;;;;;27.50;17.03;;;;;;;-0.20;79.17;99322.84;5107192;27;20205;-67
2023/11/30 09:41:26;;;;;;;27.03;15.17;;;;;;;-0.14;79.50;99322.13;5102445;27;20309;-69
2023/11/30 09:43:54;;;;;;;22.13;14.80;;;;;;;-0.06;79.56;99323.97;5101804;27;20196;-70
2023/11/30 09:46:24;;;;;;;27.13;15.50;;;;;;;0.04;78.35;99319.97;5114799;27;20673;-67
2023/11/30 09:48:53;;;;;;;24.80;15.30;;;;;;;0.09;78.69;99317.50;5113299;27;20245;-67
2023/11/30 09:51:22;;;;;;;19.97;12.80;;;;;;;0.14;77.95;99309.16;5101045;27;20196;-65
2023/11/30 09:53:50;;;;;;;19.57;13.10;;;;;;;0.13;77.76;99314.19;5119689;27;20616;-69
2023/11/30 09:56:18;;;;;;;21.73;14.17;;;;;;;0.11;78.43;99304.06;5104267;27;20200;-67
2023/11/30 09:58:46;;;;;;;21.67;14.10;;;;;;;0.21;78.09;99299.97;5104269;27;20200;-66
2023/11/30 10:01:14;;;;;;;21.27;14.10;;;;;;;0.31;77.16;99298.47;5112582;27;20674;-66
2023/11/30 10:03:42;;;;;;;21.00;13.20;;;;;;;0.31;77.34;99289.19;5115518;27;20207;-66
2023/11/30 10:06:13;;;;;;;24.70;14.30;;;;;;;0.42;77.54;99286.84;5108882;27;20203;-69
2023/11/30 10:08:41;;;;;;;22.50;13.17;;;;;;;0.47;75.81;99286.06;5102936;27;20582;-69
2023/11/30 10:11:09;;;;;;;20.07;12.93;;;;;;;0.44;76.11;99273.38;5106801;27;20501;-67
2023/11/30 10:13:37;;;;;;;19.07;12.77;;;;;;;0.45;75.62;99277.63;5103334;27;20549;-67
2023/11/30 10:16:07;;;;;;;20.17;12.23;;;;;;;0.44;76.49;99282.63;5115108;27;20230;-69
2023/11/30 10:18:35;;;;;;;19.17;12.50;;;;;;;0.36;76.04;99267.31;5106595;27;20206;-67
2023/11/30 10:21:04;;;;;;;20.23;12.37;;;;;;;0.31;75.75;99274.00;5119080;27;20219;-67
2023/11/30 10:23:33;;;;;;;20.00;13.03;;;;;;;0.31;76.59;99268.91;5100800;27;20224;-67
2023/11/30 10:26:03;;;;;;;20.73;13.10;;;;;;;0.35;76.08;99275.75;5109405;27;20199;-69
2023/11/30 10:28:31;;;;;;;19.67;13.17;;;;;;;0.41;76.48;99275.84;5115427;27;20596;-67
2023/11/30 10:31:02;;;;;;;21.63;13.73;;;;;;;0.51;76.35;99266.72;5117659;27;20196;-66
2023/11/30 10:33:36;;;;;;;21.13;12.57;;;;;;;0.69;75.44;99268.69;5099946;27;20207;-68
2023/11/30 10:36:07;;;;;;;22.60;13.13;;;;;;;0.77;75.23;99266.25;5101187;27;20641;-67
2023/11/30 10:38:39;;;;;;;18.63;12.47;;;;;;;0.86;75.70;99264.72;5103920;28;20326;-68
2023/11/30 10:41:13;;;;;;;17.97;12.70;;;;;;;0.96;74.62;99261.50;5104158;27;20276;-70
2023/11/30 10:43:48;;;;;;;18.43;12.27;;;;;;;1.07;74.28;99274.34;5114182;28;20210;-70
2023/11/30 10:46:16;;;;;;;20.37;12.60;;;;;;;1.05;72.68;99270.06;5111149;27;20638;-69
2023/11/30 10:48:44;;;;;;;15.93;11.50;;;;;;;1.03;72.98;99274.25;5106315;28;20295;-69
2023/11/30 10:51:13;;;;;;;18.63;12.03;;;;;;;1.01;73.60;99271.72;5113358;28;20718;-66
2023/11/30 10:54:04;;;;;;;15.67;11.10;;;;;;;1.01;73.40;99271.72;5108328;28;20618;-66
2023/11/30 10:56:33;;;;;;;20.07;11.67;;;;;;;1.09;72.85;99270.13;5105502;28;20200;-65
2023/11/30 10:59:01;;;;;;;18.70;11.23;;;;;;;1.16;73.26;99278.69;5114933;28;20204;-66
2023/11/30 11:01:35;;;;;;;18.80;11.53;;;;;;;1.19;72.30;99274.50;5101447;28;20250;-64
2023/11/30 11:04:07;;;;;;;15.50;10.23;;;;;;;1.20;71.75;99275.34;5102852;28;20273;-65
2023/11/30 11:06:36;;;;;;;16.70;10.73;;;;;;;1.22;72.20;99272.84;5099346;28;20199;-66
2023/11/30 11:09:08;;;;;;;18.50;11.30;;;;;;;1.28;71.84;99281.38;5100999;28;20254;-65
2023/11/30 11:11:39;;;;;;;18.57;11.23;;;;;;;1.26;71.94;99265.28;5109448;28;20311;-62
2023/11/30 11:14:08;;;;;;;17.93;11.40;;;;;;;1.26;71.73;99274.59;5106042;28;20254;-64
2023/11/30 11:16:40;;;;;;;16.60;10.97;;;;;;;1.18;70.95;99267.72;5108537;28;20235;-63
2023/11/30 11:19:10;;;;;;;15.67;10.67;;;;;;;1.14;71.93;99272.72;5117132;28;20204;-63
2023/11/30 11:21:39;;;;;;;17.70;11.33;;;;;;;1.03;71.13;99270.06;5118273;28;20211;-65
2023/11/30 11:24:09;;;;;;;17.83;10.30;;;;;;;0.93;71.70;99271.59;5109077;28;20503;-64
2023/11/30 11:26:44;;;;;;;16.80;11.37;;;;;;;0.88;72.65;99273.19;5104976;28;20253;-64